createdAt,value
2022-12-25T00:00:20.351Z,17.40
2022-12-25T00:05:22.726Z,23.17
2022-12-25T00:10:24.324Z,25.47
2022-12-25T00:15:25.794Z,13.47
2022-12-25T00:20:27.261Z,18.87
2022-12-25T00:25:28.736Z,21.87
2022-12-25T00:30:30.193Z,24.47
2022-12-25T00:35:31.659Z,18.17
2022-12-25T00:40:33.209Z,20.07
2022-12-25T00:45:34.740Z,18.00
2022-12-25T00:50:38.771Z,17.93
2022-12-25T00:55:40.242Z,24.90
2022-12-25T01:00:41.722Z,17.73
2022-12-25T01:05:44.162Z,21.20
2022-12-25T01:10:53.852Z,25.23
2022-12-25T01:15:55.532Z,18.80
2022-12-25T01:20:57.022Z,19.50
2022-12-25T01:26:04.159Z,22.97
2022-12-25T01:31:09.290Z,28.60
2022-12-25T01:36:22.019Z,24.20
2022-12-25T01:41:24.831Z,20.10
2022-12-25T01:46:26.293Z,21.37
2022-12-25T01:51:36.890Z,22.33
2022-12-25T01:56:39.277Z,18.97
2022-12-25T02:01:41.057Z,26.17
2022-12-25T02:06:42.641Z,22.03
2022-12-25T02:11:57.737Z,27.90
2022-12-25T02:17:10.157Z,27.13
2022-12-25T02:22:36.436Z,20.00
2022-12-25T02:27:59.107Z,28.53
2022-12-25T02:33:21.215Z,25.50
2022-12-25T02:38:32.181Z,23.97
2022-12-25T02:43:55.840Z,24.70
2022-12-25T02:49:19.579Z,30.80
2022-12-25T02:54:45.446Z,23.83
2022-12-25T03:00:07.290Z,29.70
2022-12-25T03:05:30.815Z,31.87
2022-12-25T03:10:51.773Z,20.53
2022-12-25T03:16:12.150Z,18.43
2022-12-25T03:21:32.302Z,19.90
2022-12-25T03:26:52.517Z,23.13
2022-12-25T03:32:04.135Z,19.60
2022-12-25T03:37:14.484Z,20.30
2022-12-25T03:42:36.733Z,24.10
2022-12-25T03:48:14.043Z,22.73
2022-12-25T03:54:03.513Z,20.20
2022-12-25T03:59:24.363Z,26.37
2022-12-25T04:04:44.988Z,15.47
2022-12-25T04:10:05.114Z,18.37
2022-12-25T04:15:25.763Z,17.20
2022-12-25T04:20:46.122Z,25.23
2022-12-25T04:26:06.308Z,17.97
2022-12-25T04:31:26.264Z,23.37
2022-12-25T04:36:27.870Z,32.93
2022-12-25T04:41:29.397Z,22.80
2022-12-25T04:46:31.023Z,24.00
2022-12-25T04:51:32.484Z,23.83
2022-12-25T04:56:35.012Z,26.60
2022-12-25T05:01:37.942Z,21.03
2022-12-25T05:06:40.209Z,22.70
2022-12-25T05:11:41.722Z,28.13
2022-12-25T05:16:43.401Z,23.47
2022-12-25T05:21:44.813Z,25.37
2022-12-25T05:26:46.559Z,27.17
2022-12-25T05:31:48.090Z,28.90
2022-12-25T05:36:49.647Z,24.30
2022-12-25T05:41:51.316Z,29.77
2022-12-25T05:46:54.012Z,21.87
2022-12-25T05:51:55.458Z,22.07
2022-12-25T05:56:56.921Z,24.90
2022-12-25T06:01:59.218Z,27.90
2022-12-25T06:07:00.763Z,27.80
2022-12-25T06:12:02.241Z,19.10
2022-12-25T06:17:03.782Z,22.40
2022-12-25T06:22:05.325Z,28.90
2022-12-25T06:27:06.938Z,28.00
2022-12-25T06:32:08.450Z,24.73
2022-12-25T06:37:10.006Z,30.27
2022-12-25T06:42:11.531Z,21.90
2022-12-25T06:47:13.301Z,29.53
2022-12-25T06:52:14.808Z,24.23
2022-12-25T06:57:16.263Z,23.17
2022-12-25T07:02:20.069Z,25.00
2022-12-25T07:07:23.521Z,16.00
2022-12-25T07:12:25.461Z,23.00
2022-12-25T07:17:26.930Z,26.63
2022-12-25T07:22:29.123Z,25.47
2022-12-25T07:27:30.590Z,24.10
2022-12-25T07:32:32.617Z,19.27
2022-12-25T07:37:34.081Z,26.27
2022-12-25T07:42:35.562Z,25.67
2022-12-25T07:47:37.037Z,27.90
2022-12-25T07:52:43.449Z,24.97
2022-12-25T07:57:45.389Z,17.87
2022-12-25T08:02:49.884Z,19.83
2022-12-25T08:07:57.661Z,23.80
2022-12-25T08:12:59.632Z,25.30
2022-12-25T08:18:01.107Z,21.90
2022-12-25T08:23:02.990Z,17.67
2022-12-25T08:28:04.630Z,22.73
2022-12-25T08:33:06.297Z,19.93
2022-12-25T08:38:07.737Z,19.43
2022-12-25T08:43:09.251Z,18.63
2022-12-25T08:48:10.767Z,23.57
2022-12-25T08:53:12.871Z,29.40
2022-12-25T08:58:14.725Z,15.63
2022-12-25T09:03:16.243Z,22.00
2022-12-25T09:08:18.123Z,22.00
2022-12-25T09:13:19.649Z,26.93
2022-12-25T09:18:21.139Z,25.07
2022-12-25T09:23:22.667Z,35.43
2022-12-25T09:28:24.185Z,29.40
2022-12-25T09:33:25.745Z,29.83
2022-12-25T09:38:28.313Z,26.37
2022-12-25T09:43:32.809Z,26.17
2022-12-25T09:48:35.873Z,26.93
2022-12-25T09:53:40.251Z,26.00
2022-12-25T09:58:41.770Z,27.83
2022-12-25T10:04:02.211Z,30.97
2022-12-25T10:09:21.758Z,24.20
2022-12-25T10:14:32.334Z,21.50
2022-12-25T10:19:41.511Z,36.10
2022-12-25T10:24:47.694Z,24.87
2022-12-25T10:29:53.727Z,21.67
2022-12-25T10:34:55.465Z,24.17
2022-12-25T10:39:57.303Z,30.83
2022-12-25T10:45:01.659Z,26.53
2022-12-25T10:50:12.336Z,28.33
2022-12-25T10:55:22.400Z,25.57
2022-12-25T11:00:30.686Z,30.10
2022-12-25T11:05:33.723Z,23.17
2022-12-25T11:10:37.717Z,36.43
2022-12-25T11:15:41.821Z,37.70
2022-12-25T11:20:58.525Z,27.13
2022-12-25T11:26:12.605Z,26.43
2022-12-25T11:31:19.215Z,33.30
2022-12-25T11:36:31.391Z,33.30
2022-12-25T11:41:33.946Z,29.00
2022-12-25T11:46:42.332Z,33.10
2022-12-25T11:51:45.892Z,34.67
2022-12-25T11:56:47.448Z,37.70
2022-12-25T12:01:54.614Z,24.77
2022-12-25T12:06:59.339Z,35.60
2022-12-25T12:12:19.566Z,28.20
2022-12-25T12:17:21.102Z,28.37
2022-12-25T12:22:25.505Z,31.77
2022-12-25T12:27:37.074Z,26.17
2022-12-25T12:32:44.337Z,28.47
2022-12-25T12:38:02.272Z,23.70
2022-12-25T12:43:05.485Z,27.47
2022-12-25T12:48:21.584Z,24.67
2022-12-25T12:53:23.366Z,28.17
2022-12-25T12:58:34.141Z,35.17
2022-12-25T13:04:12.767Z,42.73
2022-12-25T13:09:36.810Z,25.13
2022-12-25T13:14:38.715Z,26.20
2022-12-25T13:19:42.681Z,22.33
2022-12-25T13:24:55.671Z,24.80
2022-12-25T13:29:57.963Z,18.87
2022-12-25T13:34:59.895Z,19.90
2022-12-25T13:40:04.197Z,15.33
2022-12-25T13:45:15.373Z,22.20
2022-12-25T13:50:29.109Z,23.90
2022-12-25T13:55:30.815Z,17.87
2022-12-25T14:00:33.615Z,15.87
2022-12-25T14:05:42.642Z,12.73
2022-12-25T14:10:48.824Z,19.03
2022-12-25T14:15:50.929Z,14.33
2022-12-25T14:21:05.254Z,13.63
2022-12-25T14:26:06.782Z,12.93
2022-12-25T14:31:11.672Z,16.20
2022-12-25T14:36:13.485Z,16.83
2022-12-25T14:41:24.211Z,10.37
2022-12-25T14:46:29.892Z,17.07
2022-12-25T14:51:33.066Z,11.93
2022-12-25T14:56:38.442Z,19.30
2022-12-25T15:01:41.662Z,15.97
2022-12-25T15:06:52.418Z,20.23
2022-12-25T15:11:55.729Z,15.87
2022-12-25T15:16:59.253Z,14.97
2022-12-25T15:22:01.502Z,19.63
2022-12-25T15:27:05.315Z,18.10
2022-12-25T15:32:14.835Z,15.37
2022-12-25T15:37:17.727Z,13.07
2022-12-25T15:42:22.936Z,18.00
2022-12-25T15:47:25.106Z,10.67
2022-12-25T15:52:26.553Z,19.80
2022-12-25T15:57:28.017Z,15.20
2022-12-25T16:02:29.614Z,22.17
2022-12-25T16:07:33.478Z,13.73
2022-12-25T16:12:34.985Z,14.00
2022-12-25T16:17:36.437Z,11.23
2022-12-25T16:22:40.918Z,17.30
2022-12-25T16:27:42.938Z,12.37
2022-12-25T16:32:48.399Z,20.60
2022-12-25T16:37:49.869Z,18.60
2022-12-25T16:42:51.408Z,16.67
2022-12-25T16:47:52.842Z,15.33
2022-12-25T16:52:54.348Z,18.23
2022-12-25T16:57:55.888Z,18.80
2022-12-25T17:02:57.661Z,18.20
2022-12-25T17:07:59.457Z,11.73
2022-12-25T17:13:00.929Z,13.03
2022-12-25T17:18:02.446Z,8.90
2022-12-25T17:23:07.076Z,12.30
2022-12-25T17:28:08.617Z,20.57
2022-12-25T17:33:10.046Z,27.00
2022-12-25T17:38:11.506Z,20.97
2022-12-25T17:43:17.269Z,12.50
2022-12-25T17:48:22.009Z,18.77
2022-12-25T17:53:23.430Z,17.20
2022-12-25T17:58:26.336Z,18.40
2022-12-25T18:03:28.106Z,11.20
2022-12-25T18:08:35.313Z,10.13
2022-12-25T18:13:42.049Z,26.97
2022-12-25T18:18:51.170Z,15.63
2022-12-25T18:23:53.738Z,20.73
2022-12-25T18:28:55.795Z,20.73
2022-12-25T18:33:58.388Z,19.13
2022-12-25T18:38:59.934Z,16.83
2022-12-25T18:44:01.388Z,16.60
2022-12-25T18:49:02.855Z,13.30
2022-12-25T18:54:04.393Z,23.50
2022-12-25T18:59:05.876Z,11.10
2022-12-25T19:04:12.449Z,18.37
2022-12-25T19:09:14.113Z,13.00
2022-12-25T19:14:15.858Z,9.20
2022-12-25T19:19:17.868Z,16.83
2022-12-25T19:24:19.682Z,14.23
2022-12-25T19:29:21.226Z,13.50
2022-12-25T19:34:22.707Z,21.63
2022-12-25T19:39:24.162Z,14.83
2022-12-25T19:44:25.730Z,17.40
2022-12-25T19:49:27.275Z,22.27
2022-12-25T19:54:29.489Z,18.03
2022-12-25T19:59:31.028Z,17.87
2022-12-25T20:04:32.465Z,16.37
2022-12-25T20:09:33.977Z,20.70
2022-12-25T20:14:35.566Z,20.20
2022-12-25T20:19:37.043Z,21.33
2022-12-25T20:24:38.552Z,15.30
2022-12-25T20:29:39.961Z,18.87
2022-12-25T20:34:41.471Z,20.20
2022-12-25T20:39:42.969Z,21.50
2022-12-25T20:44:44.403Z,24.27
2022-12-25T20:49:47.327Z,21.17
2022-12-25T20:54:49.205Z,18.97
2022-12-25T20:59:50.817Z,21.93
2022-12-25T21:04:54.273Z,24.37
2022-12-25T21:09:56.012Z,23.17
2022-12-25T21:14:57.557Z,19.37
2022-12-25T21:19:59.050Z,23.13
2022-12-25T21:25:00.606Z,20.20
2022-12-25T21:30:14.412Z,18.80
2022-12-25T21:35:17.349Z,22.43
2022-12-25T21:40:18.906Z,15.60
2022-12-25T21:45:20.345Z,26.27
2022-12-25T21:50:40.305Z,18.60
2022-12-25T21:55:41.723Z,20.67
2022-12-25T22:00:43.174Z,16.13
2022-12-25T22:06:03.145Z,21.27
2022-12-25T22:11:04.939Z,22.33
2022-12-25T22:16:25.064Z,20.40
2022-12-25T22:21:26.562Z,23.00
2022-12-25T22:26:28.032Z,16.73
2022-12-25T22:31:32.401Z,12.97
2022-12-25T22:36:36.886Z,16.67
2022-12-25T22:41:38.344Z,21.73
2022-12-25T22:46:39.867Z,20.50
2022-12-25T22:51:42.143Z,13.90
2022-12-25T22:56:45.072Z,19.70
2022-12-25T23:01:46.741Z,16.87
2022-12-25T23:06:48.343Z,14.53
2022-12-25T23:11:50.399Z,13.93
2022-12-25T23:16:51.924Z,12.07
2022-12-25T23:22:12.043Z,14.00
2022-12-25T23:27:13.530Z,12.50
2022-12-25T23:32:18.501Z,11.27
2022-12-25T23:37:20.221Z,11.63
2022-12-25T23:42:21.712Z,15.80
2022-12-25T23:47:23.200Z,12.53
2022-12-25T23:52:24.693Z,11.13
2022-12-25T23:57:26.232Z,15.73
